Time;durP1;ratioP1;P1;durP2;ratioP2;P2;SDS_P1;SDS_P2;PMS_P1;PMS_P2;Temp;Humidity;BMP_temperature;BMP_pressure;BME280_temperature;BME280_humidity;BME280_pressure;Samples;Min_cycle;Max_cycle;Signal;HPM_P1;HPM_P2
2021/03/10 00:01:31;;;;;;;5.33;3.00;;;;;;;-4.77;57.60;101881.71;1766884;79;21150;-89
2021/03/10 00:03:58;;;;;;;5.00;3.20;;;;;;;-4.78;58.20;101877.47;1761584;79;21363;-89
2021/03/10 00:06:26;;;;;;;5.47;3.25;;;;;;;-4.81;59.08;101877.02;1765308;80;21171;-89
2021/03/10 00:08:54;;;;;;;5.50;3.77;;;;;;;-4.82;60.54;101881.67;1766874;79;21123;-89
2021/03/10 00:11:22;;;;;;;4.47;3.00;;;;;;;-4.85;60.83;101877.85;1766867;79;21174;-89
2021/03/10 00:13:50;;;;;;;3.67;2.58;;;;;;;-4.86;60.97;101875.27;1766948;80;21151;-89
2021/03/10 00:16:18;;;;;;;4.20;3.22;;;;;;;-4.85;60.68;101876.58;1736409;81;22239;-89
2021/03/10 00:18:46;;;;;;;3.17;2.70;;;;;;;-4.82;61.10;101876.59;1736286;81;21150;-89
2021/03/10 00:21:14;;;;;;;4.35;2.90;;;;;;;-4.83;60.09;101873.61;1736418;81;21551;-89
2021/03/10 00:23:43;;;;;;;3.85;2.90;;;;;;;-4.81;60.41;101874.48;1736394;81;21167;-89
2021/03/10 00:26:11;;;;;;;5.28;3.40;;;;;;;-4.80;60.79;101875.32;1736565;81;21204;-89
2021/03/10 00:28:39;;;;;;;4.10;2.80;;;;;;;-4.81;60.99;101878.73;1736499;81;22132;-89
2021/03/10 00:31:07;;;;;;;4.17;2.90;;;;;;;-4.84;62.22;101871.06;1736351;81;21203;-89
2021/03/10 00:33:34;;;;;;;3.47;2.40;;;;;;;-4.85;63.10;101871.89;1736429;81;21609;-89
2021/03/10 00:36:03;;;;;;;4.47;2.77;;;;;;;-4.85;62.55;101869.36;1736420;81;21159;-88
2021/03/10 00:38:31;;;;;;;5.87;3.47;;;;;;;-4.85;60.94;101880.79;1736488;81;21210;-89
2021/03/10 00:40:59;;;;;;;3.95;2.70;;;;;;;-4.87;62.36;101874.44;1736382;81;22130;-89
2021/03/10 00:43:27;;;;;;;4.95;3.15;;;;;;;-4.90;61.79;101875.66;1736000;81;21214;-89
2021/03/10 00:45:56;;;;;;;5.12;3.00;;;;;;;-4.94;62.39;101873.52;1728225;81;21171;-89
2021/03/10 00:48:24;;;;;;;5.33;2.95;;;;;;;-4.97;60.62;101880.26;1728237;81;21130;-88
2021/03/10 00:50:52;;;;;;;4.72;2.90;;;;;;;-4.98;59.01;101877.28;1728260;82;21653;-88
2021/03/10 00:53:19;;;;;;;3.10;2.50;;;;;;;-4.94;58.97;101877.76;1728283;81;21380;-88
2021/03/10 00:55:47;;;;;;;4.53;3.22;;;;;;;-4.90;58.92;101880.75;1728317;81;21139;-88
2021/03/10 00:58:15;;;;;;;4.00;2.72;;;;;;;-4.88;59.78;101875.27;1728201;81;21147;-88
2021/03/10 01:00:43;;;;;;;4.67;3.27;;;;;;;-4.87;61.25;101873.56;1728305;81;21135;-89
2021/03/10 01:03:11;;;;;;;3.98;2.27;;;;;;;-4.88;61.67;101872.73;1728332;81;21139;-88
2021/03/10 01:05:41;;;;;;;3.00;2.10;;;;;;;-4.83;62.28;101877.86;1727234;82;21208;-89
2021/03/10 01:08:09;;;;;;;3.20;2.37;;;;;;;-4.76;62.76;101879.61;1728225;81;21163;-88
2021/03/10 01:10:38;;;;;;;2.90;2.35;;;;;;;-4.68;63.11;101877.12;1728171;81;21547;-88
2021/03/10 01:13:07;;;;;;;3.33;2.33;;;;;;;-4.61;62.76;101871.27;1728308;81;22237;-89
2021/03/10 01:15:35;;;;;;;2.42;2.12;;;;;;;-4.55;63.05;101870.05;1728338;81;21151;-88
2021/03/10 01:18:04;;;;;;;4.95;2.75;;;;;;;-4.50;63.16;101878.55;1728295;81;22292;-88
2021/03/10 01:20:33;;;;;;;4.30;2.85;;;;;;;-4.47;63.82;101878.98;1728315;81;21147;-88
2021/03/10 01:23:01;;;;;;;5.03;2.72;;;;;;;-4.49;63.04;101872.62;1728269;82;21241;-88
2021/03/10 01:25:30;;;;;;;4.00;2.50;;;;;;;-4.48;62.20;101880.69;1728330;81;21150;-88
2021/03/10 01:27:58;;;;;;;5.05;2.98;;;;;;;-4.49;62.15;101870.08;1728889;81;21674;-88
2021/03/10 01:30:26;;;;;;;4.42;3.20;;;;;;;-4.50;62.34;101873.46;1728225;81;21202;-89
2021/03/10 01:32:57;;;;;;;6.00;3.30;;;;;;;-4.51;61.78;101869.64;1748894;81;21571;-88
2021/03/10 01:35:25;;;;;;;6.08;3.35;;;;;;;-4.53;61.64;101875.13;1758469;80;21156;-88
2021/03/10 01:37:53;;;;;;;4.40;3.10;;;;;;;-4.60;60.81;101873.81;1758381;80;21131;-88
2021/03/10 01:40:22;;;;;;;4.37;3.50;;;;;;;-4.63;59.80;101882.67;1758405;80;21550;-88
2021/03/10 01:42:50;;;;;;;4.00;2.60;;;;;;;-4.67;60.38;101883.51;1758430;80;21364;-88
2021/03/10 01:45:18;;;;;;;5.15;2.75;;;;;;;-4.70;60.28;101894.91;1758418;80;21212;-89
2021/03/10 01:47:47;;;;;;;5.45;3.12;;;;;;;-4.70;60.62;101891.52;1757833;80;21176;-89
2021/03/10 01:50:18;;;;;;;4.80;3.33;;;;;;;-4.70;60.35;101886.02;1739261;81;21259;-88
2021/03/10 01:52:48;;;;;;;5.92;3.50;;;;;;;-4.69;61.05;101887.72;1728337;81;21117;-89
2021/03/10 01:55:16;;;;;;;5.30;2.92;;;;;;;-4.73;60.26;101895.30;1758922;80;22411;-88
2021/03/10 01:57:44;;;;;;;3.98;2.45;;;;;;;-4.78;57.28;101893.59;1754805;81;21149;-88
2021/03/10 02:00:14;;;;;;;3.55;2.45;;;;;;;-4.81;57.20;101893.98;1730976;81;21155;-88
2021/03/10 02:02:43;;;;;;;3.85;2.60;;;;;;;-4.82;56.81;101894.81;1745284;81;21118;-88
2021/03/10 02:05:18;;;;;;;3.98;2.60;;;;;;;-4.81;57.01;101899.06;1743658;81;21221;-88
2021/03/10 02:08:10;;;;;;;3.58;2.67;;;;;;;-4.83;57.96;101900.30;1736461;80;21355;-88
2021/03/10 02:11:14;;;;;;;4.28;2.50;;;;;;;-4.88;59.67;101897.27;1750245;81;21170;-88
2021/03/10 02:14:08;;;;;;;3.10;1.80;;;;;;;-4.97;61.24;101895.50;1753348;80;21566;-88
2021/03/10 02:17:03;;;;;;;3.45;2.17;;;;;;;-5.03;62.25;101908.98;1747996;81;21186;-88
2021/03/10 02:20:06;;;;;;;2.35;1.75;;;;;;;-5.05;62.31;101909.81;1751345;81;21111;-88
2021/03/10 02:23:28;;;;;;;4.53;2.95;;;;;;;-5.05;62.95;101907.27;1751482;81;21463;-88
2021/03/10 02:26:36;;;;;;;3.90;2.17;;;;;;;-5.01;62.90;101911.56;1750131;81;47946;-88
2021/03/10 02:29:17;;;;;;;3.12;2.20;;;;;;;-4.91;63.05;101919.30;1871754;75;22315;-87
2021/03/10 02:31:51;;;;;;;3.42;2.30;;;;;;;-4.92;63.20;101917.98;1840198;77;21196;-87
2021/03/10 02:34:19;;;;;;;6.22;2.45;;;;;;;-4.91;63.85;101919.30;1826910;78;21357;-88
2021/03/10 02:36:50;;;;;;;5.53;2.97;;;;;;;-4.91;64.83;101920.56;1826460;77;21452;-88
2021/03/10 02:39:20;;;;;;;5.90;3.17;;;;;;;-4.91;65.47;101914.61;1812102;78;21098;-87
2021/03/10 02:41:49;;;;;;;4.53;2.98;;;;;;;-4.94;65.57;101924.33;1840132;78;21132;-89
2021/03/10 02:44:19;;;;;;;5.22;3.08;;;;;;;-4.97;65.14;101924.72;1840246;77;21133;-89
2021/03/10 02:46:47;;;;;;;4.17;3.03;;;;;;;-5.03;65.41;101926.77;1840513;78;21358;-89
2021/03/10 02:49:17;;;;;;;6.90;3.45;;;;;;;-5.07;65.31;101932.23;1840391;77;21634;-89
2021/03/10 02:51:47;;;;;;;6.70;3.47;;;;;;;-5.14;65.26;101929.63;1840385;77;21114;-89
2021/03/10 02:54:16;;;;;;;6.83;3.40;;;;;;;-5.27;65.32;101934.55;1840319;77;21180;-88
2021/03/10 02:56:45;;;;;;;5.33;3.25;;;;;;;-5.41;65.03;101933.11;1840448;77;21593;-89
2021/03/10 02:59:14;;;;;;;4.40;2.90;;;;;;;-5.48;65.73;101933.88;1840476;78;21236;-89
2021/03/10 03:01:43;;;;;;;4.85;3.40;;;;;;;-5.59;66.42;101931.20;1811062;77;21143;-88
2021/03/10 03:04:11;;;;;;;5.87;3.35;;;;;;;-5.63;67.29;101938.75;1782226;80;21156;-89
2021/03/10 03:06:38;;;;;;;4.87;2.80;;;;;;;-5.65;67.90;101939.17;1782184;79;21079;-89
2021/03/10 03:09:07;;;;;;;9.00;4.60;;;;;;;-5.66;68.00;101945.08;1782167;79;21559;-89
2021/03/10 03:11:35;;;;;;;5.17;3.65;;;;;;;-5.70;67.83;101942.48;1752003;80;21550;-89
2021/03/10 03:14:06;;;;;;;5.15;3.62;;;;;;;-5.73;68.20;101939.05;1777468;79;21238;-88
2021/03/10 03:16:34;;;;;;;;;;;;;;;-5.74;68.68;101939.48;1784779;79;21150;-88
2021/03/10 03:19:03;;;;;;;6.22;3.80;;;;;;;-5.74;68.91;101942.41;1782141;80;20289;-88
2021/03/10 03:21:33;;;;;;;5.12;3.05;;;;;;;-5.79;69.34;101949.13;1782307;79;21179;-88
2021/03/10 03:24:01;;;;;;;5.72;4.25;;;;;;;-5.85;69.93;101954.95;1782314;80;21355;-89
2021/03/10 03:26:30;;;;;;;5.72;3.62;;;;;;;-5.90;70.41;101955.31;1782078;79;21606;-89
2021/03/10 03:28:59;;;;;;;6.08;4.08;;;;;;;-5.94;71.22;101958.23;1768599;79;21110;-89
2021/03/10 03:31:29;;;;;;;6.17;3.75;;;;;;;-5.99;72.07;101961.12;1801900;78;21545;-89
2021/03/10 03:33:58;;;;;;;6.45;3.40;;;;;;;-6.05;72.75;101962.30;1802268;79;26295;-88
2021/03/10 03:36:26;;;;;;;7.90;4.35;;;;;;;-6.08;73.09;101964.38;1804185;77;21562;-85
2021/03/10 03:47:31;;;;;;;6.47;3.70;;;;;;;-6.21;75.28;101968.41;1849654;77;21422;-85
2021/03/10 03:54:23;;;;;;;5.90;3.42;;;;;;;-6.43;77.28;101973.52;1824708;77;21514;-85
2021/03/10 04:00:56;;;;;;;6.25;4.08;;;;;;;-6.51;79.23;101970.00;1823225;77;21157;-83
2021/03/10 04:07:54;;;;;;;7.28;4.15;;;;;;;-6.61;80.18;101963.92;1816196;79;21160;-85
2021/03/10 04:19:10;;;;;;;9.00;4.85;;;;;;;-6.73;83.32;101975.13;1767006;81;21125;-85
2021/03/10 04:26:02;;;;;;;8.50;4.40;;;;;;;-6.67;84.02;101974.80;1767063;81;21126;-85
2021/03/10 04:32:35;;;;;;;7.78;4.62;;;;;;;-6.74;84.75;101976.78;1764294;81;21475;-85
2021/03/10 04:39:27;;;;;;;6.62;3.58;;;;;;;-6.77;86.33;101979.25;1764372;81;21175;-87
2021/03/10 04:46:19;;;;;;;9.33;5.00;;;;;;;-6.56;86.66;101986.81;1780494;80;21209;-86
2021/03/10 04:53:10;;;;;;;7.03;4.42;;;;;;;-6.46;86.22;101991.23;1769469;80;21072;-86
2021/03/10 05:00:08;;;;;;;7.03;4.67;;;;;;;-6.40;85.93;101994.27;1764416;81;21146;-86
2021/03/10 05:07:00;;;;;;;7.97;4.33;;;;;;;-6.40;87.17;101992.59;1732383;82;21428;-86
2021/03/10 05:13:51;;;;;;;7.15;4.55;;;;;;;-6.23;88.04;102005.98;1756017;81;21447;-86
2021/03/10 05:20:42;;;;;;;13.95;6.22;;;;;;;-5.93;88.35;102004.73;1756056;81;20988;-87
2021/03/10 05:27:34;;;;;;;12.07;6.08;;;;;;;-5.64;87.23;102011.52;1755997;81;21418;-87
2021/03/10 05:34:07;;;;;;;12.33;5.92;;;;;;;-5.30;85.87;102014.53;1767348;81;21151;-87
2021/03/10 05:40:59;;;;;;;15.78;6.78;;;;;;;-5.13;81.57;102024.90;1767283;81;21163;-87
2021/03/10 05:47:52;;;;;;;28.55;7.40;;;;;;;-4.95;80.86;102032.31;1768471;81;21420;-89
2021/03/10 05:54:44;;;;;;;23.00;5.53;;;;;;;-4.68;86.71;102037.27;1775511;79;21200;-90
2021/03/10 06:00:43;;;;;;;18.42;7.05;;;;;;;-4.22;83.35;102050.48;1767349;78;21130;-88
2021/03/10 06:03:14;;;;;;;11.88;5.25;;;;;;;-4.12;80.80;102056.06;1779711;78;21194;-89
2021/03/10 06:05:43;;;;;;;9.95;5.33;;;;;;;-4.01;84.22;102057.86;1771310;79;21206;-90
2021/03/10 06:08:15;;;;;;;11.50;5.45;;;;;;;-3.85;85.80;102056.31;1766781;80;22102;-89
2021/03/10 06:10:48;;;;;;;8.98;5.47;;;;;;;-3.72;84.12;102056.83;1766791;80;21135;-89
2021/03/10 06:13:27;;;;;;;16.35;6.42;;;;;;;-3.59;85.52;102059.05;1766723;80;21155;-89
2021/03/10 06:16:02;;;;;;;9.73;5.15;;;;;;;-3.46;80.39;102055.29;1765017;80;21171;-89
2021/03/10 06:18:36;;;;;;;16.90;4.75;;;;;;;-3.42;70.92;102065.51;1766720;79;21155;-89
2021/03/10 06:21:13;;;;;;;8.68;5.00;;;;;;;-3.44;67.89;102067.63;1766900;80;22122;-89
2021/03/10 06:23:54;;;;;;;7.33;4.72;;;;;;;-3.43;67.08;102073.99;1766856;81;21489;-89
2021/03/10 06:26:29;;;;;;;17.00;4.92;;;;;;;-3.40;66.10;102073.16;1784973;78;21155;-88
2021/03/10 06:28:59;;;;;;;7.37;4.37;;;;;;;-3.34;67.83;102071.51;1761793;79;21099;-89
2021/03/10 06:31:34;;;;;;;11.88;3.65;;;;;;;-3.25;64.97;102063.48;1758663;80;21102;-87
2021/03/10 06:34:11;;;;;;;9.70;3.67;;;;;;;-3.20;61.77;102076.69;1758798;81;22282;-90
2021/03/10 06:36:44;;;;;;;8.25;4.08;;;;;;;-3.20;60.03;102070.32;1758805;81;21130;-91
2021/03/10 06:39:31;;;;;;;4.72;3.05;;;;;;;-3.13;59.19;102074.17;1758965;80;21071;-88
2021/03/10 06:42:00;;;;;;;8.55;3.40;;;;;;;-3.08;60.56;102064.84;1758663;80;21134;-88
2021/03/10 06:44:31;;;;;;;4.35;3.02;;;;;;;-3.02;55.81;102075.92;1758978;81;21126;-90
2021/03/10 06:47:02;;;;;;;4.92;3.40;;;;;;;-3.02;53.06;102073.38;1758827;81;22127;-90
2021/03/10 06:49:33;;;;;;;13.93;3.85;;;;;;;-3.00;53.19;102087.39;1758720;80;21170;-89
2021/03/10 06:52:10;;;;;;;5.62;2.67;;;;;;;-3.04;54.23;102082.70;1765236;79;21059;-89
2021/03/10 06:54:57;;;;;;;13.60;3.87;;;;;;;-3.03;55.48;102079.75;1768051;80;21119;-88
2021/03/10 06:57:27;;;;;;;8.28;3.75;;;;;;;-2.96;55.43;102077.66;1758410;80;21118;-88
2021/03/10 06:59:56;;;;;;;6.15;2.72;;;;;;;-2.88;54.16;102078.95;1753425;79;21441;-87
2021/03/10 07:02:30;;;;;;;4.30;2.70;;;;;;;-2.86;53.25;102079.82;1749703;81;21206;-86
2021/03/10 07:05:00;;;;;;;3.87;2.83;;;;;;;-2.82;52.16;102079.41;1766249;79;21523;-87
2021/03/10 07:07:31;;;;;;;9.33;3.27;;;;;;;-2.77;53.16;102070.94;1756625;80;21131;-86
2021/03/10 07:10:01;;;;;;;5.00;2.62;;;;;;;-2.75;51.39;102074.35;1743995;81;21143;-87
2021/03/10 07:12:29;;;;;;;4.65;3.20;;;;;;;-2.75;48.37;102072.20;1739188;81;21635;-87
2021/03/10 07:15:01;;;;;;;8.73;3.15;;;;;;;-2.78;48.83;102077.31;1739256;81;21146;-87
2021/03/10 07:17:31;;;;;;;10.03;3.55;;;;;;;-2.79;51.25;102079.44;1736331;81;21649;-87
2021/03/10 07:20:00;;;;;;;4.08;2.67;;;;;;;-2.72;52.84;102076.90;1750966;81;21538;-86
2021/03/10 07:22:38;;;;;;;4.53;2.62;;;;;;;-2.68;49.33;102077.76;1739375;81;21083;-86
2021/03/10 07:25:14;;;;;;;4.53;2.72;;;;;;;-2.71;48.89;102071.39;1743457;81;22285;-85
2021/03/10 07:28:01;;;;;;;5.08;2.77;;;;;;;-2.72;48.54;102074.78;1739031;81;21193;-85
2021/03/10 07:30:43;;;;;;;4.25;2.65;;;;;;;-2.78;47.73;102079.43;1749177;81;21535;-85
2021/03/10 07:33:21;;;;;;;5.75;2.92;;;;;;;-2.88;46.97;102073.45;1759807;80;21189;-85
2021/03/10 07:36:00;;;;;;;4.28;3.08;;;;;;;-2.95;47.32;102075.55;1747438;79;21162;-85
2021/03/10 07:38:40;;;;;;;4.35;2.42;;;;;;;-2.99;48.46;102073.81;1766564;79;22378;-85
2021/03/10 07:41:14;;;;;;;4.08;2.70;;;;;;;-2.99;49.29;102071.70;1750239;80;21142;-85
2021/03/10 07:43:46;;;;;;;3.72;2.60;;;;;;;-2.90;49.68;102068.76;1748021;79;21616;-85
2021/03/10 07:46:22;;;;;;;4.00;2.67;;;;;;;-2.75;48.79;102065.84;1756295;81;21167;-85
2021/03/10 07:48:51;;;;;;;5.83;2.80;;;;;;;-2.64;47.81;102076.94;1767492;80;21601;-85
2021/03/10 07:51:33;;;;;;;5.42;3.02;;;;;;;-2.58;47.35;102072.28;1757098;79;21197;-86
2021/03/10 07:54:25;;;;;;;4.83;2.45;;;;;;;-2.55;46.79;102067.17;1840636;77;22354;-85
2021/03/10 07:57:11;;;;;;;5.62;2.80;;;;;;;-2.60;48.60;102072.70;1749151;82;21059;-85
2021/03/10 07:59:53;;;;;;;5.22;3.00;;;;;;;-2.54;48.03;102070.16;1780230;80;21152;-85
2021/03/10 08:02:26;;;;;;;9.00;2.98;;;;;;;-2.58;48.21;102071.02;1749018;80;21128;-86
2021/03/10 08:05:01;;;;;;;4.30;3.12;;;;;;;-2.60;47.02;102071.42;1765966;80;21179;-86
2021/03/10 08:07:32;;;;;;;4.20;2.98;;;;;;;-2.57;49.63;102068.89;1780132;80;21718;-87
2021/03/10 08:10:00;;;;;;;3.70;2.83;;;;;;;-2.52;48.23;102068.47;1771969;80;21175;-86
2021/03/10 08:13:42;;;;;;;3.27;2.70;;;;;;;-2.44;49.70;102062.09;1751306;80;21189;-86
2021/03/10 08:16:48;;;;;;;3.67;2.20;;;;;;;-2.31;47.25;102060.02;1685733;83;21191;-85
2021/03/10 08:19:23;;;;;;;3.87;2.70;;;;;;;-2.11;49.47;102058.77;1692895;83;21082;-85
2021/03/10 08:21:54;;;;;;;3.30;2.15;;;;;;;-2.04;46.16;102053.22;1723274;82;21619;-86
2021/03/10 08:24:25;;;;;;;4.12;2.45;;;;;;;-2.10;44.13;102050.67;1718533;82;21533;-86
2021/03/10 08:26:58;;;;;;;3.55;2.42;;;;;;;-2.15;44.83;102043.45;1712779;83;27042;-86
2021/03/10 08:29:27;;;;;;;4.08;2.40;;;;;;;-2.14;46.40;102051.53;1713282;83;21189;-86
2021/03/10 08:31:58;;;;;;;2.87;2.47;;;;;;;-2.11;46.18;102045.14;1719262;82;21121;-85
2021/03/10 08:34:36;;;;;;;5.97;2.70;;;;;;;-2.08;47.41;102048.54;1719009;82;21221;-86
2021/03/10 08:37:11;;;;;;;4.15;2.47;;;;;;;-2.00;48.76;102054.94;1727682;82;21132;-86
2021/03/10 08:39:48;;;;;;;2.85;2.35;;;;;;;-1.87;48.93;102051.09;1719292;82;21132;-86
2021/03/10 08:42:21;;;;;;;4.33;2.72;;;;;;;-1.71;47.14;102046.41;1728007;82;21211;-86
2021/03/10 08:44:52;;;;;;;3.25;2.80;;;;;;;-1.57;45.52;102040.45;1743473;82;21147;-86
2021/03/10 08:47:26;;;;;;;4.70;3.02;;;;;;;-1.48;45.66;102040.00;1749205;82;21175;-86
2021/03/10 08:49:59;;;;;;;5.05;2.90;;;;;;;-1.50;46.68;102041.70;1749108;81;21164;-86
2021/03/10 08:52:28;;;;;;;3.45;2.65;;;;;;;-1.39;49.01;102035.28;1749096;82;21444;-86
2021/03/10 08:55:01;;;;;;;6.60;2.90;;;;;;;-1.27;49.57;102036.55;1784057;80;21146;-86
2021/03/10 08:57:33;;;;;;;4.78;3.35;;;;;;;-1.20;45.10;102036.52;1742359;81;21159;-86
2021/03/10 09:00:06;;;;;;;3.80;2.60;;;;;;;-1.27;44.25;102039.11;1756005;80;21464;-86
2021/03/10 09:02:37;;;;;;;4.37;3.08;;;;;;;-1.28;44.38;102043.79;1751530;80;21084;-84
2021/03/10 09:05:08;;;;;;;4.00;2.62;;;;;;;-1.25;44.22;102036.53;1752112;81;21374;-84
2021/03/10 09:07:37;;;;;;;3.52;2.62;;;;;;;-1.27;42.83;102037.83;1754993;80;21193;-84
2021/03/10 09:10:16;;;;;;;5.70;2.60;;;;;;;-1.36;43.75;102035.73;1784229;80;21666;-84
2021/03/10 09:12:49;;;;;;;3.85;2.72;;;;;;;-1.41;45.54;102037.02;1751686;80;21174;-85
2021/03/10 09:15:27;;;;;;;3.60;2.58;;;;;;;-1.40;47.94;102038.69;1782696;80;21185;-85
2021/03/10 09:18:07;;;;;;;3.35;2.70;;;;;;;-1.30;49.18;102036.55;1775546;80;21473;-85
2021/03/10 09:20:41;;;;;;;4.65;2.65;;;;;;;-1.10;48.88;102034.36;1749795;80;21113;-84
2021/03/10 09:23:12;;;;;;;5.25;2.80;;;;;;;-0.92;47.57;102033.87;1752439;80;21648;-84
2021/03/10 09:25:42;;;;;;;6.30;3.40;;;;;;;-0.80;44.86;102042.31;1747748;81;21204;-84
2021/03/10 09:28:18;;;;;;;4.10;2.67;;;;;;;-0.80;46.75;102042.31;1747686;80;21086;-84
2021/03/10 09:31:00;;;;;;;3.15;2.70;;;;;;;-0.72;44.91;102043.58;1751758;81;21298;-85
2021/03/10 09:33:33;;;;;;;3.97;3.00;;;;;;;-0.66;41.84;102038.42;1749304;80;21147;-85
2021/03/10 09:36:03;;;;;;;3.50;2.40;;;;;;;-0.67;43.18;102046.11;1731444;81;21773;-85
2021/03/10 09:38:34;;;;;;;4.55;3.17;;;;;;;-0.66;43.69;102037.58;1755952;80;21571;-84
2021/03/10 09:41:06;;;;;;;3.53;2.90;;;;;;;-0.61;43.43;102038.84;1759001;80;21159;-84
2021/03/10 09:43:36;;;;;;;3.40;2.50;;;;;;;-0.51;45.35;102043.02;1752866;80;21208;-84
2021/03/10 09:46:08;;;;;;;4.22;3.00;;;;;;;-0.37;44.95;102036.13;1752294;80;21225;-84
2021/03/10 09:48:41;;;;;;;3.40;2.62;;;;;;;-0.28;43.02;102031.81;1752241;81;21129;-84
2021/03/10 09:51:22;;;;;;;3.67;2.50;;;;;;;-0.27;42.18;102037.32;1747476;81;21201;-85
2021/03/10 09:53:51;;;;;;;4.55;2.75;;;;;;;-0.32;40.43;102045.90;1768959;80;21111;-85
2021/03/10 09:56:30;;;;;;;3.90;2.55;;;;;;;-0.36;41.65;102039.08;1856134;75;22043;-84
2021/03/10 09:59:03;;;;;;;3.35;2.55;;;;;;;-0.38;43.46;102040.83;1829040;77;21041;-84
2021/03/10 10:01:46;;;;;;;3.80;2.55;;;;;;;-0.28;42.89;102035.66;1821349;77;21403;-84
2021/03/10 10:04:29;;;;;;;5.15;3.02;;;;;;;-0.17;42.18;102033.43;1860866;75;23342;-84
2021/03/10 10:06:59;;;;;;;4.08;2.90;;;;;;;-0.17;40.92;102028.72;1830744;78;21143;-85
2021/03/10 10:09:29;;;;;;;3.60;2.58;;;;;;;-0.18;40.86;102033.42;1801833;78;22355;-85
2021/03/10 10:11:59;;;;;;;3.87;2.58;;;;;;;-0.22;40.05;102030.03;1823482;77;21511;-84
2021/03/10 10:14:30;;;;;;;4.70;2.80;;;;;;;-0.28;41.44;102022.41;1834155;78;21466;-84
2021/03/10 10:16:58;;;;;;;6.10;2.70;;;;;;;-0.25;42.21;102023.67;1824925;78;21096;-85
2021/03/10 10:19:29;;;;;;;;;;;;;;;-0.15;42.64;102019.33;1820410;77;21157;-86
2021/03/10 10:21:57;;;;;;;3.72;2.50;;;;;;;-0.01;41.49;102013.66;1840521;77;21128;-86
2021/03/10 10:24:27;;;;;;;3.75;2.90;;;;;;;0.00;42.41;102005.56;1808548;77;21206;-86
2021/03/10 10:26:55;;;;;;;5.40;2.70;;;;;;;-0.06;41.60;102003.02;1829175;78;21064;-86
2021/03/10 10:29:25;;;;;;;5.95;3.02;;;;;;;-0.14;40.47;101997.11;1757640;80;21139;-86
2021/03/10 10:32:00;;;;;;;4.42;3.17;;;;;;;-0.24;39.89;101998.91;1777947;80;21134;-86
2021/03/10 10:34:31;;;;;;;3.90;3.05;;;;;;;-0.30;42.29;101998.97;1749010;80;22133;-85
2021/03/10 10:40:51;;;;;;;4.20;2.98;;;;;;;-0.24;41.64;101988.67;1768044;79;21143;-87
2021/03/10 10:43:21;;;;;;;3.27;2.70;;;;;;;-0.20;40.84;101993.75;1768145;79;21202;-87
2021/03/10 10:45:52;;;;;;;4.05;2.50;;;;;;;-0.33;40.59;101987.88;1773582;79;21642;-87
2021/03/10 10:48:21;;;;;;;4.22;3.20;;;;;;;-0.42;40.90;101981.98;1760678;79;21209;-87
2021/03/10 10:50:51;;;;;;;3.92;2.77;;;;;;;-0.45;42.76;101980.30;1772470;80;21158;-87
2021/03/10 10:53:19;;;;;;;3.45;2.95;;;;;;;-0.41;43.13;101976.84;1777894;79;21123;-87
2021/03/10 10:55:48;;;;;;;5.00;3.00;;;;;;;-0.30;42.95;101979.32;1777994;79;21142;-87
2021/03/10 10:58:17;;;;;;;4.33;3.00;;;;;;;-0.15;43.04;101982.20;1777882;79;21406;-87
2021/03/10 11:00:45;;;;;;;5.05;2.75;;;;;;;-0.07;41.55;101977.86;1778175;80;22586;-87
2021/03/10 11:03:13;;;;;;;4.30;2.67;;;;;;;-0.08;39.72;101977.44;1778048;79;21162;-87
2021/03/10 11:05:45;;;;;;;5.10;2.92;;;;;;;-0.17;40.85;101971.11;1773337;79;21530;-87
2021/03/10 11:08:15;;;;;;;4.70;2.75;;;;;;;-0.17;42.88;101977.52;1778538;79;21067;-88
2021/03/10 11:10:43;;;;;;;3.75;2.80;;;;;;;-0.11;40.68;101968.49;1778696;79;21142;-87
2021/03/10 11:13:13;;;;;;;3.95;2.72;;;;;;;-0.03;40.30;101978.23;1777995;79;21382;-87
2021/03/10 11:15:49;;;;;;;5.05;3.35;;;;;;;0.01;42.41;101969.26;1772429;80;21173;-86
2021/03/10 11:18:31;;;;;;;5.15;3.12;;;;;;;0.05;40.13;101964.51;1780755;79;21540;-86
2021/03/10 11:21:00;;;;;;;14.35;3.67;;;;;;;0.02;38.17;101972.23;1780755;79;21142;-86
2021/03/10 11:23:28;;;;;;;4.80;2.72;;;;;;;-0.02;39.47;101963.73;1760355;80;21146;-86
2021/03/10 11:25:58;;;;;;;4.60;2.50;;;;;;;-0.01;38.56;101966.72;1759494;79;22162;-87
2021/03/10 11:28:26;;;;;;;4.75;2.85;;;;;;;-0.03;39.35;101962.87;1765176;79;21190;-87
2021/03/10 11:30:54;;;;;;;6.35;2.60;;;;;;;-0.03;37.90;101964.15;1778049;79;21154;-87
2021/03/10 11:33:23;;;;;;;4.10;3.00;;;;;;;0.01;43.21;101961.58;1778012;79;21135;-86
2021/03/10 11:35:53;;;;;;;5.03;2.80;;;;;;;0.11;42.40;101957.62;1778165;79;21611;-87
2021/03/10 11:38:21;;;;;;;4.10;2.92;;;;;;;0.22;41.53;101955.39;1778027;79;21191;-86
2021/03/10 11:40:49;;;;;;;3.42;2.70;;;;;;;0.31;41.48;101954.02;1779725;79;21591;-86
2021/03/10 11:43:17;;;;;;;3.37;2.47;;;;;;;0.38;40.58;101952.22;1792877;78;21183;-87
2021/03/10 11:45:45;;;;;;;7.28;2.42;;;;;;;0.40;42.77;101941.52;1752988;80;21550;-88
2021/03/10 11:48:14;;;;;;;4.28;2.50;;;;;;;0.50;44.33;101942.26;1762794;80;21142;-87
2021/03/10 11:50:42;;;;;;;4.62;3.45;;;;;;;0.58;43.62;101938.76;1747564;80;21379;-87
2021/03/10 11:53:10;;;;;;;3.10;2.40;;;;;;;0.65;42.27;101937.39;1784906;78;21147;-87
2021/03/10 11:55:39;;;;;;;3.62;2.58;;;;;;;0.65;42.13;101936.11;1768637;79;21599;-86
2021/03/10 11:58:06;;;;;;;4.08;2.35;;;;;;;0.60;39.04;101932.32;1777504;79;21213;-87
2021/03/10 12:00:37;;;;;;;6.00;3.62;;;;;;;0.51;43.44;101929.45;1764885;79;21210;-85
2021/03/10 12:03:39;;;;;;;4.95;2.60;;;;;;;0.50;41.14;101927.75;1773982;79;21259;-85
2021/03/10 12:14:41;;;;;;;3.77;2.35;;;;;;;0.37;41.50;101917.20;1797374;79;21141;-86
2021/03/10 12:17:12;;;;;;;7.40;2.83;;;;;;;0.40;39.70;101919.74;1816738;78;21098;-85
2021/03/10 12:24:08;;;;;;;4.37;2.65;;;;;;;0.25;41.49;101913.94;1796265;79;21526;-85
2021/03/10 12:43:27;;;;;;;3.05;2.50;;;;;;;-0.14;37.67;101912.61;1815019;77;21511;-83
2021/03/10 12:46:27;;;;;;;4.00;2.80;;;;;;;-0.38;39.91;101905.16;1828983;78;21503;-85
2021/03/10 12:53:18;;;;;;;3.22;2.10;;;;;;;-0.44;40.24;101912.88;1820090;77;21125;-85
2021/03/10 12:55:47;;;;;;;5.03;2.70;;;;;;;-0.50;41.74;101910.37;1828989;78;21346;-85
2021/03/10 13:06:00;;;;;;;4.65;3.10;;;;;;;-0.39;40.17;101908.58;1789838;78;21129;-84
2021/03/10 13:08:58;;;;;;;5.62;2.60;;;;;;;-0.41;39.92;101899.23;1805768;79;21125;-83
2021/03/10 13:11:35;;;;;;;3.15;2.50;;;;;;;-0.45;40.35;101896.26;1801136;77;21357;-84
2021/03/10 13:14:31;;;;;;;11.05;4.58;;;;;;;-0.49;39.59;101896.72;1809186;79;21579;-84
2021/03/10 13:17:35;;;;;;;5.45;3.17;;;;;;;-0.46;38.61;101895.84;1787095;79;21569;-84
2021/03/10 13:31:21;;;;;;;3.27;2.17;;;;;;;-0.43;40.60;101894.09;1764602;80;21179;-88
2021/03/10 13:38:13;;;;;;;3.80;2.60;;;;;;;-0.45;39.56;101902.24;1803099;78;21154;-86
2021/03/10 13:45:06;;;;;;;7.22;3.70;;;;;;;-0.63;42.54;101894.26;1796515;77;21101;-86
2021/03/10 13:51:50;;;;;;;7.12;3.15;;;;;;;-0.64;42.83;101892.56;1791398;77;21110;-88
2021/03/10 13:58:41;;;;;;;3.80;2.70;;;;;;;-0.71;40.12;101890.91;1820166;77;21547;-86
2021/03/10 14:05:33;;;;;;;6.08;2.70;;;;;;;-0.77;44.68;101893.11;1809627;78;21557;-86
2021/03/10 14:16:00;;;;;;;12.53;4.62;;;;;;;-0.72;43.23;101887.52;1828962;78;21597;-87
2021/03/10 14:22:52;;;;;;;4.92;3.20;;;;;;;-0.90;40.66;101878.28;1805953;77;21304;-87
2021/03/10 14:29:43;;;;;;;6.80;3.25;;;;;;;-0.97;43.57;101875.34;1801723;77;21236;-86
2021/03/10 14:36:34;;;;;;;4.08;2.98;;;;;;;-1.04;41.52;101874.53;1796123;79;21566;-86
2021/03/10 14:43:06;;;;;;;4.22;3.12;;;;;;;-1.11;44.41;101874.15;1796282;79;21150;-86
2021/03/10 14:57:37;;;;;;;5.55;3.22;;;;;;;-1.20;45.58;101869.92;1821308;78;21633;-86
2021/03/10 15:04:30;;;;;;;5.70;3.17;;;;;;;-1.27;44.19;101862.73;1818649;77;21136;-86
2021/03/10 15:07:28;;;;;;;9.60;4.53;;;;;;;-1.29;46.34;101860.61;1797322;77;21141;-84
2021/03/10 15:14:00;;;;;;;42.40;18.17;;;;;;;-1.40;45.38;101862.80;1795162;78;21201;-86
2021/03/10 15:16:30;;;;;;;23.57;9.50;;;;;;;-1.45;46.19;101861.55;1810009;78;21169;-89
2021/03/10 15:19:01;;;;;;;13.65;7.65;;;;;;;-1.48;48.11;101863.70;1792857;79;21165;-88
2021/03/10 15:21:30;;;;;;;23.55;10.23;;;;;;;-1.50;47.12;101863.29;1821596;77;21169;-88
2021/03/10 15:23:58;;;;;;;41.48;12.20;;;;;;;-1.47;49.96;101872.20;1825459;77;22309;-88
2021/03/10 15:26:26;;;;;;;30.97;12.80;;;;;;;-1.46;49.91;101864.95;1825278;78;21158;-89
2021/03/10 15:28:54;;;;;;;31.60;11.65;;;;;;;-1.46;47.96;101871.34;1825379;77;21170;-89